sensor_id;sensor_type;location;lat;lon;timestamp;temperature;humidity
31967;DHT22;18496;52.042;6.812;2023-07-02T00:00:46;19.40;99.90
31967;DHT22;18496;52.042;6.812;2023-07-02T00:02:50;19.40;99.90
31967;DHT22;18496;52.042;6.812;2023-07-02T00:04:54;19.40;99.90
31967;DHT22;18496;52.042;6.812;2023-07-02T00:06:57;19.40;99.90
31967;DHT22;18496;52.042;6.812;2023-07-02T00:09:01;19.40;99.90
31967;DHT22;18496;52.042;6.812;2023-07-02T00:11:05;19.40;99.90
31967;DHT22;18496;52.042;6.812;2023-07-02T00:13:08;19.40;99.90
31967;DHT22;18496;52.042;6.812;2023-07-02T00:15:12;19.30;99.90
31967;DHT22;18496;52.042;6.812;2023-07-02T00:17:15;19.30;99.90
31967;DHT22;18496;52.042;6.812;2023-07-02T00:19:19;19.30;99.90
31967;DHT22;18496;52.042;6.812;2023-07-02T00:21:23;19.30;99.90
31967;DHT22;18496;52.042;6.812;2023-07-02T00:23:31;19.30;99.90
31967;DHT22;18496;52.042;6.812;2023-07-02T00:25:35;19.20;99.90
31967;DHT22;18496;52.042;6.812;2023-07-02T00:27:38;19.20;99.90
31967;DHT22;18496;52.042;6.812;2023-07-02T00:29:42;19.20;99.90
31967;DHT22;18496;52.042;6.812;2023-07-02T00:31:46;19.20;99.90
31967;DHT22;18496;52.042;6.812;2023-07-02T00:33:50;19.10;99.90
31967;DHT22;18496;52.042;6.812;2023-07-02T00:35:54;19.10;99.90
31967;DHT22;18496;52.042;6.812;2023-07-02T00:37:58;19.10;99.90
31967;DHT22;18496;52.042;6.812;2023-07-02T00:40:01;19.10;99.90
31967;DHT22;18496;52.042;6.812;2023-07-02T00:42:06;19.20;99.90
31967;DHT22;18496;52.042;6.812;2023-07-02T00:44:12;19.10;99.90
31967;DHT22;18496;52.042;6.812;2023-07-02T00:46:17;19.20;99.90
31967;DHT22;18496;52.042;6.812;2023-07-02T00:48:21;19.20;99.90
31967;DHT22;18496;52.042;6.812;2023-07-02T00:50:25;19.20;99.90
31967;DHT22;18496;52.042;6.812;2023-07-02T00:52:29;19.20;99.90
31967;DHT22;18496;52.042;6.812;2023-07-02T00:54:32;19.20;99.90
31967;DHT22;18496;52.042;6.812;2023-07-02T00:56:38;19.20;99.90
31967;DHT22;18496;52.042;6.812;2023-07-02T00:58:43;19.20;99.90
31967;DHT22;18496;52.042;6.812;2023-07-02T01:00:51;19.20;99.90
31967;DHT22;18496;52.042;6.812;2023-07-02T01:02:56;19.20;99.90
31967;DHT22;18496;52.042;6.812;2023-07-02T01:05:02;19.20;99.90
31967;DHT22;18496;52.042;6.812;2023-07-02T01:07:06;19.20;99.90
31967;DHT22;18496;52.042;6.812;2023-07-02T01:09:14;19.10;99.90
31967;DHT22;18496;52.042;6.812;2023-07-02T01:11:18;19.10;99.90
31967;DHT22;18496;52.042;6.812;2023-07-02T01:13:24;19.10;99.90
31967;DHT22;18496;52.042;6.812;2023-07-02T01:15:27;19.10;99.90
31967;DHT22;18496;52.042;6.812;2023-07-02T01:17:34;19.10;99.90
31967;DHT22;18496;52.042;6.812;2023-07-02T01:21:54;19.10;99.90
31967;DHT22;18496;52.042;6.812;2023-07-02T01:24:02;19.10;99.90
31967;DHT22;18496;52.042;6.812;2023-07-02T01:26:06;19.00;99.90
31967;DHT22;18496;52.042;6.812;2023-07-02T01:28:12;19.00;99.90
31967;DHT22;18496;52.042;6.812;2023-07-02T01:30:17;19.00;99.90
31967;DHT22;18496;52.042;6.812;2023-07-02T01:32:21;19.00;99.90
31967;DHT22;18496;52.042;6.812;2023-07-02T01:34:28;19.00;99.90
31967;DHT22;18496;52.042;6.812;2023-07-02T01:36:31;19.00;99.90
31967;DHT22;18496;52.042;6.812;2023-07-02T01:38:35;19.00;99.90
31967;DHT22;18496;52.042;6.812;2023-07-02T01:40:39;19.00;99.90
31967;DHT22;18496;52.042;6.812;2023-07-02T01:42:42;19.00;99.90
31967;DHT22;18496;52.042;6.812;2023-07-02T01:44:48;19.00;99.90
31967;DHT22;18496;52.042;6.812;2023-07-02T01:46:53;19.00;99.90
31967;DHT22;18496;52.042;6.812;2023-07-02T01:48:59;19.00;99.90
31967;DHT22;18496;52.042;6.812;2023-07-02T01:51:03;19.00;99.90
31967;DHT22;18496;52.042;6.812;2023-07-02T01:53:06;19.00;99.90
31967;DHT22;18496;52.042;6.812;2023-07-02T01:55:10;19.00;99.90
31967;DHT22;18496;52.042;6.812;2023-07-02T01:57:14;19.00;99.90
31967;DHT22;18496;52.042;6.812;2023-07-02T01:59:18;19.00;99.90
31967;DHT22;18496;52.042;6.812;2023-07-02T02:01:22;19.00;99.90
31967;DHT22;18496;52.042;6.812;2023-07-02T02:03:25;18.90;99.90
31967;DHT22;18496;52.042;6.812;2023-07-02T02:05:29;18.90;99.90
31967;DHT22;18496;52.042;6.812;2023-07-02T02:07:33;18.80;99.90
31967;DHT22;18496;52.042;6.812;2023-07-02T02:09:38;18.90;99.90
31967;DHT22;18496;52.042;6.812;2023-07-02T02:11:48;18.80;99.90
31967;DHT22;18496;52.042;6.812;2023-07-02T02:13:52;18.90;99.90
31967;DHT22;18496;52.042;6.812;2023-07-02T02:15:55;18.80;99.90
31967;DHT22;18496;52.042;6.812;2023-07-02T02:17:59;18.90;99.90
31967;DHT22;18496;52.042;6.812;2023-07-02T02:20:03;18.90;99.90
31967;DHT22;18496;52.042;6.812;2023-07-02T02:22:09;18.90;99.90
31967;DHT22;18496;52.042;6.812;2023-07-02T02:24:12;18.90;99.90
31967;DHT22;18496;52.042;6.812;2023-07-02T02:26:16;18.90;99.90
31967;DHT22;18496;52.042;6.812;2023-07-02T02:28:20;18.90;99.90
31967;DHT22;18496;52.042;6.812;2023-07-02T02:30:24;18.90;99.90
31967;DHT22;18496;52.042;6.812;2023-07-02T02:32:27;18.90;99.90
31967;DHT22;18496;52.042;6.812;2023-07-02T02:34:31;18.90;99.90
31967;DHT22;18496;52.042;6.812;2023-07-02T02:36:36;18.90;99.90
31967;DHT22;18496;52.042;6.812;2023-07-02T02:38:39;18.90;99.90
31967;DHT22;18496;52.042;6.812;2023-07-02T02:40:44;18.90;99.90
31967;DHT22;18496;52.042;6.812;2023-07-02T02:42:51;18.90;99.90
31967;DHT22;18496;52.042;6.812;2023-07-02T02:44:55;18.90;99.90
31967;DHT22;18496;52.042;6.812;2023-07-02T02:46:58;18.80;99.90
31967;DHT22;18496;52.042;6.812;2023-07-02T02:49:03;18.80;99.90
31967;DHT22;18496;52.042;6.812;2023-07-02T02:51:07;18.80;99.90
31967;DHT22;18496;52.042;6.812;2023-07-02T02:53:11;18.80;99.90
31967;DHT22;18496;52.042;6.812;2023-07-02T02:55:14;18.80;99.90
31967;DHT22;18496;52.042;6.812;2023-07-02T02:57:18;18.80;99.90
31967;DHT22;18496;52.042;6.812;2023-07-02T02:59:22;18.80;99.90
31967;DHT22;18496;52.042;6.812;2023-07-02T03:01:25;18.70;99.90
31967;DHT22;18496;52.042;6.812;2023-07-02T03:03:34;18.60;99.90
31967;DHT22;18496;52.042;6.812;2023-07-02T03:05:41;18.60;99.90
31967;DHT22;18496;52.042;6.812;2023-07-02T03:07:45;18.60;99.90
31967;DHT22;18496;52.042;6.812;2023-07-02T03:09:48;18.60;99.90
31967;DHT22;18496;52.042;6.812;2023-07-02T03:11:52;18.60;99.90
31967;DHT22;18496;52.042;6.812;2023-07-02T03:13:56;18.60;99.90
31967;DHT22;18496;52.042;6.812;2023-07-02T03:16:00;18.50;99.90
31967;DHT22;18496;52.042;6.812;2023-07-02T03:18:03;18.50;99.90
31967;DHT22;18496;52.042;6.812;2023-07-02T03:20:07;18.40;99.90
31967;DHT22;18496;52.042;6.812;2023-07-02T03:22:11;18.40;99.90
31967;DHT22;18496;52.042;6.812;2023-07-02T03:24:15;18.30;99.90
31967;DHT22;18496;52.042;6.812;2023-07-02T03:26:19;18.30;99.90
31967;DHT22;18496;52.042;6.812;2023-07-02T03:28:23;18.20;99.90
31967;DHT22;18496;52.042;6.812;2023-07-02T03:30:27;18.20;99.90
31967;DHT22;18496;52.042;6.812;2023-07-02T03:32:31;18.30;99.90
31967;DHT22;18496;52.042;6.812;2023-07-02T03:34:34;18.30;99.90
31967;DHT22;18496;52.042;6.812;2023-07-02T03:36:38;18.20;99.90
31967;DHT22;18496;52.042;6.812;2023-07-02T03:38:41;18.20;99.90
31967;DHT22;18496;52.042;6.812;2023-07-02T03:40:45;18.10;99.90
31967;DHT22;18496;52.042;6.812;2023-07-02T03:42:49;18.20;99.90
31967;DHT22;18496;52.042;6.812;2023-07-02T03:44:53;18.10;99.90
31967;DHT22;18496;52.042;6.812;2023-07-02T03:46:56;18.20;99.90
31967;DHT22;18496;52.042;6.812;2023-07-02T03:49:00;18.20;99.90
31967;DHT22;18496;52.042;6.812;2023-07-02T03:51:04;18.20;99.90
31967;DHT22;18496;52.042;6.812;2023-07-02T03:53:08;18.20;99.90
31967;DHT22;18496;52.042;6.812;2023-07-02T03:55:11;18.10;99.90
31967;DHT22;18496;52.042;6.812;2023-07-02T03:57:15;18.10;99.90
31967;DHT22;18496;52.042;6.812;2023-07-02T03:59:19;18.10;99.90
31967;DHT22;18496;52.042;6.812;2023-07-02T04:01:22;18.10;99.90
31967;DHT22;18496;52.042;6.812;2023-07-02T04:03:26;18.10;99.90
31967;DHT22;18496;52.042;6.812;2023-07-02T04:05:30;18.10;99.90
31967;DHT22;18496;52.042;6.812;2023-07-02T04:07:33;18.10;99.90
31967;DHT22;18496;52.042;6.812;2023-07-02T04:09:37;18.10;99.90
31967;DHT22;18496;52.042;6.812;2023-07-02T04:11:41;18.10;99.90
31967;DHT22;18496;52.042;6.812;2023-07-02T04:13:45;18.10;99.90
31967;DHT22;18496;52.042;6.812;2023-07-02T04:15:48;18.10;99.90
31967;DHT22;18496;52.042;6.812;2023-07-02T04:17:52;18.10;99.90
31967;DHT22;18496;52.042;6.812;2023-07-02T04:19:57;18.00;99.90
31967;DHT22;18496;52.042;6.812;2023-07-02T04:22:01;18.00;99.90
31967;DHT22;18496;52.042;6.812;2023-07-02T04:24:04;18.00;99.90
31967;DHT22;18496;52.042;6.812;2023-07-02T04:26:08;17.90;99.90
31967;DHT22;18496;52.042;6.812;2023-07-02T04:28:12;17.90;99.90
31967;DHT22;18496;52.042;6.812;2023-07-02T04:30:15;17.90;99.90
31967;DHT22;18496;52.042;6.812;2023-07-02T04:32:19;17.90;99.90
31967;DHT22;18496;52.042;6.812;2023-07-02T04:34:23;17.80;99.90
31967;DHT22;18496;52.042;6.812;2023-07-02T04:36:26;17.80;99.90
31967;DHT22;18496;52.042;6.812;2023-07-02T04:38:31;17.80;99.90
31967;DHT22;18496;52.042;6.812;2023-07-02T04:40:35;17.70;99.90
31967;DHT22;18496;52.042;6.812;2023-07-02T04:42:41;17.70;99.90
31967;DHT22;18496;52.042;6.812;2023-07-02T04:44:50;17.70;99.90
31967;DHT22;18496;52.042;6.812;2023-07-02T04:46:53;17.70;99.90
31967;DHT22;18496;52.042;6.812;2023-07-02T04:48:57;17.70;99.90
31967;DHT22;18496;52.042;6.812;2023-07-02T04:51:01;17.70;99.90
31967;DHT22;18496;52.042;6.812;2023-07-02T04:53:04;17.70;99.90
31967;DHT22;18496;52.042;6.812;2023-07-02T04:55:08;17.70;99.90
31967;DHT22;18496;52.042;6.812;2023-07-02T04:57:12;17.70;99.90
31967;DHT22;18496;52.042;6.812;2023-07-02T04:59:20;17.70;99.90
31967;DHT22;18496;52.042;6.812;2023-07-02T05:01:24;17.70;99.90
31967;DHT22;18496;52.042;6.812;2023-07-02T05:03:27;17.70;99.90
31967;DHT22;18496;52.042;6.812;2023-07-02T05:05:31;17.70;99.90
31967;DHT22;18496;52.042;6.812;2023-07-02T05:07:35;17.60;99.90
31967;DHT22;18496;52.042;6.812;2023-07-02T05:09:38;17.60;99.90
31967;DHT22;18496;52.042;6.812;2023-07-02T05:11:42;17.60;99.90
31967;DHT22;18496;52.042;6.812;2023-07-02T05:13:46;17.60;99.90
31967;DHT22;18496;52.042;6.812;2023-07-02T05:15:49;17.60;99.90
31967;DHT22;18496;52.042;6.812;2023-07-02T05:17:53;17.60;99.90
31967;DHT22;18496;52.042;6.812;2023-07-02T05:19:57;17.60;99.90
31967;DHT22;18496;52.042;6.812;2023-07-02T05:22:00;17.60;99.90
31967;DHT22;18496;52.042;6.812;2023-07-02T05:24:05;17.60;99.90
31967;DHT22;18496;52.042;6.812;2023-07-02T05:26:09;17.70;99.90
31967;DHT22;18496;52.042;6.812;2023-07-02T05:28:12;17.70;99.90
31967;DHT22;18496;52.042;6.812;2023-07-02T05:30:16;17.70;99.90
31967;DHT22;18496;52.042;6.812;2023-07-02T05:32:20;17.80;99.90
31967;DHT22;18496;52.042;6.812;2023-07-02T05:34:23;17.70;99.90
31967;DHT22;18496;52.042;6.812;2023-07-02T05:36:27;17.70;99.90
31967;DHT22;18496;52.042;6.812;2023-07-02T05:38:31;17.70;99.90
31967;DHT22;18496;52.042;6.812;2023-07-02T05:40:34;17.70;99.90
31967;DHT22;18496;52.042;6.812;2023-07-02T05:42:38;17.70;99.90
31967;DHT22;18496;52.042;6.812;2023-07-02T05:44:42;17.70;99.90
31967;DHT22;18496;52.042;6.812;2023-07-02T05:46:45;17.70;99.90
31967;DHT22;18496;52.042;6.812;2023-07-02T05:48:49;17.80;99.90
31967;DHT22;18496;52.042;6.812;2023-07-02T05:50:53;17.80;99.90
31967;DHT22;18496;52.042;6.812;2023-07-02T05:52:57;17.80;99.90
31967;DHT22;18496;52.042;6.812;2023-07-02T05:55:00;17.80;99.90
31967;DHT22;18496;52.042;6.812;2023-07-02T05:57:04;17.80;99.90
31967;DHT22;18496;52.042;6.812;2023-07-02T05:59:08;17.80;99.90
31967;DHT22;18496;52.042;6.812;2023-07-02T06:01:11;17.70;99.90
31967;DHT22;18496;52.042;6.812;2023-07-02T06:03:17;17.80;99.90
31967;DHT22;18496;52.042;6.812;2023-07-02T06:05:22;17.80;99.90
31967;DHT22;18496;52.042;6.812;2023-07-02T06:07:26;17.90;99.90
31967;DHT22;18496;52.042;6.812;2023-07-02T06:09:30;17.90;99.90
31967;DHT22;18496;52.042;6.812;2023-07-02T06:11:35;17.90;99.90
31967;DHT22;18496;52.042;6.812;2023-07-02T06:13:39;18.00;99.90
31967;DHT22;18496;52.042;6.812;2023-07-02T06:15:43;18.00;99.90
31967;DHT22;18496;52.042;6.812;2023-07-02T06:17:46;18.00;99.90
31967;DHT22;18496;52.042;6.812;2023-07-02T06:19:50;18.10;99.90
31967;DHT22;18496;52.042;6.812;2023-07-02T06:21:54;18.10;99.90
31967;DHT22;18496;52.042;6.812;2023-07-02T06:23:57;18.10;99.90
31967;DHT22;18496;52.042;6.812;2023-07-02T06:26:02;18.20;99.90
31967;DHT22;18496;52.042;6.812;2023-07-02T06:28:06;18.20;99.90
31967;DHT22;18496;52.042;6.812;2023-07-02T06:30:10;18.20;99.90
31967;DHT22;18496;52.042;6.812;2023-07-02T06:32:14;18.20;99.90
31967;DHT22;18496;52.042;6.812;2023-07-02T06:34:17;18.20;99.90
31967;DHT22;18496;52.042;6.812;2023-07-02T06:36:21;18.20;99.90
31967;DHT22;18496;52.042;6.812;2023-07-02T06:38:24;18.20;99.90
31967;DHT22;18496;52.042;6.812;2023-07-02T06:40:28;18.20;99.90
31967;DHT22;18496;52.042;6.812;2023-07-02T06:42:32;18.20;99.90
31967;DHT22;18496;52.042;6.812;2023-07-02T06:44:36;18.20;99.90
31967;DHT22;18496;52.042;6.812;2023-07-02T06:46:40;18.30;99.90
31967;DHT22;18496;52.042;6.812;2023-07-02T06:48:44;18.30;99.90
31967;DHT22;18496;52.042;6.812;2023-07-02T06:50:47;18.30;99.90
31967;DHT22;18496;52.042;6.812;2023-07-02T06:52:51;18.40;99.90
31967;DHT22;18496;52.042;6.812;2023-07-02T06:54:55;18.40;99.90
31967;DHT22;18496;52.042;6.812;2023-07-02T06:56:58;18.40;99.90
31967;DHT22;18496;52.042;6.812;2023-07-02T06:59:02;18.40;99.90
31967;DHT22;18496;52.042;6.812;2023-07-02T07:01:06;18.30;99.90
31967;DHT22;18496;52.042;6.812;2023-07-02T07:03:11;18.30;99.90
31967;DHT22;18496;52.042;6.812;2023-07-02T07:05:15;18.30;99.90
31967;DHT22;18496;52.042;6.812;2023-07-02T07:07:18;18.30;99.90
31967;DHT22;18496;52.042;6.812;2023-07-02T07:09:22;18.40;99.90
31967;DHT22;18496;52.042;6.812;2023-07-02T07:11:26;18.40;99.90
31967;DHT22;18496;52.042;6.812;2023-07-02T07:13:30;18.40;99.90
31967;DHT22;18496;52.042;6.812;2023-07-02T07:15:34;18.50;99.90
31967;DHT22;18496;52.042;6.812;2023-07-02T07:17:40;18.50;99.90
31967;DHT22;18496;52.042;6.812;2023-07-02T07:19:44;18.60;99.90
31967;DHT22;18496;52.042;6.812;2023-07-02T07:21:47;18.60;99.90
31967;DHT22;18496;52.042;6.812;2023-07-02T07:23:51;18.60;99.60
31967;DHT22;18496;52.042;6.812;2023-07-02T07:25:55;18.60;99.90
31967;DHT22;18496;52.042;6.812;2023-07-02T07:28:02;18.70;99.90
31967;DHT22;18496;52.042;6.812;2023-07-02T07:30:06;18.70;98.80
31967;DHT22;18496;52.042;6.812;2023-07-02T07:32:09;18.80;98.80
31967;DHT22;18496;52.042;6.812;2023-07-02T07:34:13;18.70;99.00
31967;DHT22;18496;52.042;6.812;2023-07-02T07:36:17;18.70;99.10
31967;DHT22;18496;52.042;6.812;2023-07-02T07:38:20;18.70;99.20
31967;DHT22;18496;52.042;6.812;2023-07-02T07:40:24;18.80;99.50
31967;DHT22;18496;52.042;6.812;2023-07-02T07:42:28;18.80;99.30
31967;DHT22;18496;52.042;6.812;2023-07-02T07:44:31;18.80;98.60
31967;DHT22;18496;52.042;6.812;2023-07-02T07:46:35;18.80;98.60
31967;DHT22;18496;52.042;6.812;2023-07-02T07:48:39;18.80;98.50
31967;DHT22;18496;52.042;6.812;2023-07-02T07:50:42;18.80;98.00
31967;DHT22;18496;52.042;6.812;2023-07-02T07:52:47;18.80;98.10
31967;DHT22;18496;52.042;6.812;2023-07-02T07:54:51;18.70;98.00
31967;DHT22;18496;52.042;6.812;2023-07-02T07:56:55;18.80;98.40
31967;DHT22;18496;52.042;6.812;2023-07-02T07:58:58;18.80;98.30
31967;DHT22;18496;52.042;6.812;2023-07-02T08:01:02;18.90;98.50
31967;DHT22;18496;52.042;6.812;2023-07-02T08:03:05;18.90;98.20
31967;DHT22;18496;52.042;6.812;2023-07-02T08:05:09;18.90;98.50
31967;DHT22;18496;52.042;6.812;2023-07-02T08:07:13;18.90;98.70
31967;DHT22;18496;52.042;6.812;2023-07-02T08:09:17;18.90;98.60
31967;DHT22;18496;52.042;6.812;2023-07-02T08:11:20;18.90;98.80
31967;DHT22;18496;52.042;6.812;2023-07-02T08:13:24;19.00;98.40
31967;DHT22;18496;52.042;6.812;2023-07-02T08:15:28;19.00;97.70
31967;DHT22;18496;52.042;6.812;2023-07-02T08:17:31;19.10;98.00
31967;DHT22;18496;52.042;6.812;2023-07-02T08:19:35;19.20;97.60
31967;DHT22;18496;52.042;6.812;2023-07-02T08:21:39;19.20;96.60
31967;DHT22;18496;52.042;6.812;2023-07-02T08:23:43;19.20;96.40
31967;DHT22;18496;52.042;6.812;2023-07-02T08:25:49;19.20;95.60
31967;DHT22;18496;52.042;6.812;2023-07-02T08:27:53;19.20;95.90
31967;DHT22;18496;52.042;6.812;2023-07-02T08:29:56;19.20;96.10
31967;DHT22;18496;52.042;6.812;2023-07-02T08:32:00;19.20;95.70
31967;DHT22;18496;52.042;6.812;2023-07-02T08:34:04;19.30;96.30
31967;DHT22;18496;52.042;6.812;2023-07-02T08:36:07;19.30;94.90
31967;DHT22;18496;52.042;6.812;2023-07-02T08:38:11;19.40;94.60
31967;DHT22;18496;52.042;6.812;2023-07-02T08:40:18;19.40;94.80
31967;DHT22;18496;52.042;6.812;2023-07-02T08:42:22;19.50;95.10
31967;DHT22;18496;52.042;6.812;2023-07-02T08:44:26;19.60;94.40
31967;DHT22;18496;52.042;6.812;2023-07-02T08:46:30;19.60;94.10
31967;DHT22;18496;52.042;6.812;2023-07-02T08:48:34;19.60;94.10
31967;DHT22;18496;52.042;6.812;2023-07-02T08:50:38;19.60;93.10
31967;DHT22;18496;52.042;6.812;2023-07-02T08:52:42;19.60;93.00
31967;DHT22;18496;52.042;6.812;2023-07-02T08:54:48;19.50;93.20
31967;DHT22;18496;52.042;6.812;2023-07-02T08:56:52;19.50;93.10
31967;DHT22;18496;52.042;6.812;2023-07-02T08:58:55;19.40;92.60
31967;DHT22;18496;52.042;6.812;2023-07-02T09:01:06;19.30;93.40
31967;DHT22;18496;52.042;6.812;2023-07-02T09:03:14;19.30;93.70
31967;DHT22;18496;52.042;6.812;2023-07-02T09:05:21;19.30;93.60
31967;DHT22;18496;52.042;6.812;2023-07-02T09:07:24;19.30;93.70
31967;DHT22;18496;52.042;6.812;2023-07-02T09:09:28;19.40;94.20
31967;DHT22;18496;52.042;6.812;2023-07-02T09:11:33;19.40;93.90
31967;DHT22;18496;52.042;6.812;2023-07-02T09:13:48;19.50;93.70
31967;DHT22;18496;52.042;6.812;2023-07-02T09:15:52;19.60;92.80
31967;DHT22;18496;52.042;6.812;2023-07-02T09:17:56;19.60;91.50
31967;DHT22;18496;52.042;6.812;2023-07-02T09:20:01;19.60;91.40
31967;DHT22;18496;52.042;6.812;2023-07-02T09:22:04;19.60;90.80
31967;DHT22;18496;52.042;6.812;2023-07-02T09:24:29;19.60;91.00
31967;DHT22;18496;52.042;6.812;2023-07-02T09:26:33;19.60;90.20
31967;DHT22;18496;52.042;6.812;2023-07-02T09:28:37;19.70;90.20
31967;DHT22;18496;52.042;6.812;2023-07-02T09:30:52;19.70;91.00
31967;DHT22;18496;52.042;6.812;2023-07-02T09:33:06;19.60;91.50
31967;DHT22;18496;52.042;6.812;2023-07-02T09:35:10;19.60;91.70
31967;DHT22;18496;52.042;6.812;2023-07-02T09:37:13;19.60;92.20
31967;DHT22;18496;52.042;6.812;2023-07-02T09:39:19;19.50;91.80
31967;DHT22;18496;52.042;6.812;2023-07-02T09:41:25;19.50;91.60
31967;DHT22;18496;52.042;6.812;2023-07-02T09:43:31;19.50;91.40
31967;DHT22;18496;52.042;6.812;2023-07-02T09:45:35;19.60;91.80
31967;DHT22;18496;52.042;6.812;2023-07-02T09:47:44;19.60;92.10
31967;DHT22;18496;52.042;6.812;2023-07-02T09:49:57;19.80;91.90
31967;DHT22;18496;52.042;6.812;2023-07-02T09:52:11;19.90;91.20
31967;DHT22;18496;52.042;6.812;2023-07-02T09:54:15;20.00;90.30
31967;DHT22;18496;52.042;6.812;2023-07-02T09:56:19;20.00;90.20
31967;DHT22;18496;52.042;6.812;2023-07-02T09:58:24;20.00;90.10
31967;DHT22;18496;52.042;6.812;2023-07-02T10:00:28;20.00;88.30
31967;DHT22;18496;52.042;6.812;2023-07-02T10:02:32;20.10;87.80
31967;DHT22;18496;52.042;6.812;2023-07-02T10:04:40;20.10;86.30
31967;DHT22;18496;52.042;6.812;2023-07-02T10:06:49;20.10;84.30
31967;DHT22;18496;52.042;6.812;2023-07-02T10:08:57;20.10;84.90
31967;DHT22;18496;52.042;6.812;2023-07-02T10:11:10;20.20;86.30
31967;DHT22;18496;52.042;6.812;2023-07-02T10:13:14;20.30;86.60
31967;DHT22;18496;52.042;6.812;2023-07-02T10:15:25;20.40;85.70
31967;DHT22;18496;52.042;6.812;2023-07-02T10:17:31;20.50;85.30
31967;DHT22;18496;52.042;6.812;2023-07-02T10:19:36;20.60;85.20
31967;DHT22;18496;52.042;6.812;2023-07-02T10:21:39;20.60;84.50
31967;DHT22;18496;52.042;6.812;2023-07-02T10:23:43;20.60;85.10
31967;DHT22;18496;52.042;6.812;2023-07-02T10:25:46;20.60;86.20
31967;DHT22;18496;52.042;6.812;2023-07-02T10:27:50;20.70;84.30
31967;DHT22;18496;52.042;6.812;2023-07-02T10:29:54;20.70;85.00
31967;DHT22;18496;52.042;6.812;2023-07-02T10:31:57;20.70;84.60
31967;DHT22;18496;52.042;6.812;2023-07-02T10:34:01;20.70;82.20
31967;DHT22;18496;52.042;6.812;2023-07-02T10:36:05;20.70;80.00
31967;DHT22;18496;52.042;6.812;2023-07-02T10:38:14;20.70;81.10
31967;DHT22;18496;52.042;6.812;2023-07-02T10:40:22;20.80;80.60
31967;DHT22;18496;52.042;6.812;2023-07-02T10:42:26;21.00;81.00
31967;DHT22;18496;52.042;6.812;2023-07-02T10:44:29;21.10;82.00
31967;DHT22;18496;52.042;6.812;2023-07-02T10:46:33;21.20;80.70
31967;DHT22;18496;52.042;6.812;2023-07-02T10:48:37;21.30;81.20
31967;DHT22;18496;52.042;6.812;2023-07-02T10:50:41;21.20;79.30
31967;DHT22;18496;52.042;6.812;2023-07-02T10:52:45;21.30;77.20
31967;DHT22;18496;52.042;6.812;2023-07-02T10:54:49;21.20;77.00
31967;DHT22;18496;52.042;6.812;2023-07-02T10:56:59;21.30;77.00
31967;DHT22;18496;52.042;6.812;2023-07-02T10:59:03;21.40;76.50
31967;DHT22;18496;52.042;6.812;2023-07-02T11:01:06;21.40;75.40
31967;DHT22;18496;52.042;6.812;2023-07-02T11:03:21;21.40;75.90
31967;DHT22;18496;52.042;6.812;2023-07-02T11:05:25;21.40;74.40
31967;DHT22;18496;52.042;6.812;2023-07-02T11:07:28;21.30;73.10
31967;DHT22;18496;52.042;6.812;2023-07-02T11:09:32;21.30;73.10
31967;DHT22;18496;52.042;6.812;2023-07-02T11:11:36;21.20;75.10
31967;DHT22;18496;52.042;6.812;2023-07-02T11:13:47;21.30;74.30
31967;DHT22;18496;52.042;6.812;2023-07-02T11:15:53;21.20;74.20
31967;DHT22;18496;52.042;6.812;2023-07-02T11:17:56;21.30;75.40
31967;DHT22;18496;52.042;6.812;2023-07-02T11:20:00;21.20;75.10
31967;DHT22;18496;52.042;6.812;2023-07-02T11:22:04;21.30;75.90
31967;DHT22;18496;52.042;6.812;2023-07-02T11:24:08;21.40;75.20
31967;DHT22;18496;52.042;6.812;2023-07-02T11:26:12;21.40;73.30
31967;DHT22;18496;52.042;6.812;2023-07-02T11:28:15;21.30;72.90
31967;DHT22;18496;52.042;6.812;2023-07-02T11:30:19;21.30;73.90
31967;DHT22;18496;52.042;6.812;2023-07-02T11:32:22;21.30;74.60
31967;DHT22;18496;52.042;6.812;2023-07-02T11:34:26;21.20;74.10
31967;DHT22;18496;52.042;6.812;2023-07-02T11:36:30;21.20;74.20
31967;DHT22;18496;52.042;6.812;2023-07-02T11:38:34;21.20;74.80
31967;DHT22;18496;52.042;6.812;2023-07-02T11:40:39;21.20;74.10
31967;DHT22;18496;52.042;6.812;2023-07-02T11:42:42;21.20;74.70
31967;DHT22;18496;52.042;6.812;2023-07-02T11:44:47;21.20;76.40
31967;DHT22;18496;52.042;6.812;2023-07-02T11:46:52;21.30;75.20
31967;DHT22;18496;52.042;6.812;2023-07-02T11:48:56;21.30;74.80
31967;DHT22;18496;52.042;6.812;2023-07-02T11:50:59;21.30;73.70
31967;DHT22;18496;52.042;6.812;2023-07-02T11:53:03;21.30;72.10
31967;DHT22;18496;52.042;6.812;2023-07-02T11:55:07;21.20;71.00
31967;DHT22;18496;52.042;6.812;2023-07-02T11:57:11;21.10;73.00
31967;DHT22;18496;52.042;6.812;2023-07-02T11:59:14;21.20;72.30
31967;DHT22;18496;52.042;6.812;2023-07-02T12:01:18;21.30;71.80
31967;DHT22;18496;52.042;6.812;2023-07-02T12:03:22;21.30;71.30
31967;DHT22;18496;52.042;6.812;2023-07-02T12:05:25;21.30;72.00
31967;DHT22;18496;52.042;6.812;2023-07-02T12:07:29;21.30;72.90
31967;DHT22;18496;52.042;6.812;2023-07-02T12:09:33;21.40;73.70
31967;DHT22;18496;52.042;6.812;2023-07-02T12:11:36;21.40;71.90
31967;DHT22;18496;52.042;6.812;2023-07-02T12:13:40;21.50;70.30
31967;DHT22;18496;52.042;6.812;2023-07-02T12:15:43;21.50;70.80
31967;DHT22;18496;52.042;6.812;2023-07-02T12:17:47;21.40;71.30
31967;DHT22;18496;52.042;6.812;2023-07-02T12:19:51;21.50;71.70
31967;DHT22;18496;52.042;6.812;2023-07-02T12:21:54;21.50;72.40
31967;DHT22;18496;52.042;6.812;2023-07-02T12:23:58;21.50;72.20
31967;DHT22;18496;52.042;6.812;2023-07-02T12:26:02;21.50;73.00
31967;DHT22;18496;52.042;6.812;2023-07-02T12:28:05;21.70;72.80
31967;DHT22;18496;52.042;6.812;2023-07-02T12:30:09;21.80;73.00
31967;DHT22;18496;52.042;6.812;2023-07-02T12:32:13;21.90;72.00
31967;DHT22;18496;52.042;6.812;2023-07-02T12:34:17;21.90;70.50
31967;DHT22;18496;52.042;6.812;2023-07-02T12:36:20;22.00;69.50
31967;DHT22;18496;52.042;6.812;2023-07-02T12:38:24;21.90;70.10
31967;DHT22;18496;52.042;6.812;2023-07-02T12:40:28;21.90;69.90
31967;DHT22;18496;52.042;6.812;2023-07-02T12:42:31;21.80;70.80
31967;DHT22;18496;52.042;6.812;2023-07-02T12:44:35;21.80;70.20
31967;DHT22;18496;52.042;6.812;2023-07-02T12:46:38;21.80;70.50
31967;DHT22;18496;52.042;6.812;2023-07-02T12:48:42;21.90;71.10
31967;DHT22;18496;52.042;6.812;2023-07-02T12:50:56;22.00;71.50
31967;DHT22;18496;52.042;6.812;2023-07-02T12:53:00;22.10;70.40
31967;DHT22;18496;52.042;6.812;2023-07-02T12:55:04;22.20;69.70
31967;DHT22;18496;52.042;6.812;2023-07-02T12:57:08;22.30;70.50
31967;DHT22;18496;52.042;6.812;2023-07-02T12:59:11;22.40;69.50
31967;DHT22;18496;52.042;6.812;2023-07-02T13:01:15;22.50;70.20
31967;DHT22;18496;52.042;6.812;2023-07-02T13:03:19;22.70;68.70
31967;DHT22;18496;52.042;6.812;2023-07-02T13:05:22;22.80;67.20
31967;DHT22;18496;52.042;6.812;2023-07-02T13:07:26;22.80;66.20